createdAt,value
2016-08-20T00:00:57.688Z,0
2016-08-20T00:01:57.616Z,0
2016-08-20T00:02:57.612Z,0
2016-08-20T00:03:58.398Z,0
2016-08-20T00:04:57.369Z,0
2016-08-20T00:05:57.591Z,0
2016-08-20T00:06:58.400Z,0
2016-08-20T00:07:57.329Z,0
2016-08-20T00:08:57.616Z,0
2016-08-20T00:09:59.273Z,0
2016-08-20T00:10:57.323Z,0
2016-08-20T00:11:57.836Z,0
2016-08-20T00:12:57.626Z,0
2016-08-20T00:13:57.544Z,0
2016-08-20T00:14:57.372Z,0
2016-08-20T00:15:57.663Z,0
2016-08-20T00:16:57.462Z,0
2016-08-20T00:17:57.417Z,0
2016-08-20T00:18:57.510Z,0
2016-08-20T00:19:58.373Z,0
2016-08-20T00:20:57.491Z,0
2016-08-20T00:21:57.583Z,0
2016-08-20T00:22:57.877Z,0
2016-08-20T00:23:57.262Z,0
2016-08-20T00:24:57.454Z,0
2016-08-20T00:25:58.326Z,0
2016-08-20T00:26:58.179Z,0
2016-08-20T00:27:57.558Z,0
2016-08-20T00:28:57.293Z,0
2016-08-20T00:29:57.242Z,0
2016-08-20T00:30:57.711Z,0
2016-08-20T00:31:57.332Z,0
2016-08-20T00:32:57.328Z,0
2016-08-20T00:33:58.353Z,0
2016-08-20T00:34:57.383Z,0
2016-08-20T00:35:58.028Z,0
2016-08-20T00:36:57.517Z,0
2016-08-20T00:37:57.456Z,0
2016-08-20T00:38:57.369Z,0
2016-08-20T00:39:57.498Z,0
2016-08-20T00:40:57.553Z,0
2016-08-20T00:41:57.426Z,0
2016-08-20T00:42:57.357Z,0
2016-08-20T00:43:57.413Z,0
2016-08-20T00:44:57.357Z,0
2016-08-20T00:45:57.373Z,0
2016-08-20T00:46:57.416Z,0
2016-08-20T00:47:57.324Z,0
2016-08-20T00:48:57.268Z,0
2016-08-20T00:49:58.111Z,0
2016-08-20T00:50:59.103Z,0
2016-08-20T00:51:57.308Z,0
2016-08-20T00:52:57.326Z,0
2016-08-20T00:53:57.318Z,0
2016-08-20T00:54:57.326Z,0
2016-08-20T00:55:57.443Z,0
2016-08-20T00:56:57.514Z,0
2016-08-20T00:57:57.241Z,0
2016-08-20T00:58:57.275Z,0
2016-08-20T00:59:57.944Z,0
2016-08-20T01:00:57.276Z,0
2016-08-20T01:01:57.554Z,0
2016-08-20T01:02:57.254Z,0
2016-08-20T01:03:57.970Z,0
2016-08-20T01:04:57.468Z,0
2016-08-20T01:05:58.336Z,0
2016-08-20T01:06:57.238Z,0
2016-08-20T01:07:57.295Z,0
2016-08-20T01:08:57.511Z,0
2016-08-20T01:09:57.275Z,0
2016-08-20T01:10:57.929Z,0
2016-08-20T01:11:58.284Z,0
2016-08-20T01:12:57.316Z,0
2016-08-20T01:13:57.546Z,0
2016-08-20T01:14:57.329Z,0
2016-08-20T01:15:57.151Z,0
2016-08-20T01:16:57.383Z,0
2016-08-20T01:17:57.313Z,0
2016-08-20T01:18:57.230Z,0
2016-08-20T01:19:57.256Z,0
2016-08-20T01:20:57.312Z,0
2016-08-20T01:21:57.148Z,0
2016-08-20T01:22:57.388Z,0
2016-08-20T01:23:57.374Z,0
2016-08-20T01:24:57.278Z,0
2016-08-20T01:25:57.777Z,0
2016-08-20T01:26:57.291Z,0
2016-08-20T01:27:57.115Z,0
2016-08-20T01:28:57.205Z,0
2016-08-20T01:29:57.368Z,0
2016-08-20T01:30:57.498Z,0
2016-08-20T01:31:57.250Z,0
2016-08-20T01:32:57.195Z,0
2016-08-20T01:34:11.947Z,0
2016-08-20T01:34:57.066Z,0
2016-08-20T01:35:57.143Z,0
2016-08-20T01:36:57.145Z,0
2016-08-20T01:37:57.281Z,0
2016-08-20T01:38:57.064Z,0
2016-08-20T01:39:57.282Z,0
2016-08-20T01:40:57.241Z,0
2016-08-20T01:41:57.360Z,0
2016-08-20T01:42:57.160Z,0
2016-08-20T01:43:57.190Z,0
2016-08-20T01:44:57.187Z,0
2016-08-20T01:45:57.134Z,0
2016-08-20T01:46:57.437Z,0
2016-08-20T01:47:58.005Z,0
2016-08-20T01:48:57.272Z,0
2016-08-20T01:49:57.524Z,0
2016-08-20T01:50:57.064Z,0
2016-08-20T01:51:57.331Z,0
2016-08-20T01:52:57.365Z,0
2016-08-20T01:53:57.492Z,0
2016-08-20T01:54:57.178Z,0
2016-08-20T01:55:57.035Z,0
2016-08-20T01:56:57.375Z,0
2016-08-20T01:57:57.025Z,0
2016-08-20T01:58:57.964Z,0
2016-08-20T01:59:57.717Z,0
2016-08-20T02:00:57.024Z,0
2016-08-20T02:01:57.085Z,0
2016-08-20T02:02:57.084Z,0
2016-08-20T02:04:11.861Z,0
2016-08-20T02:04:57.155Z,0
2016-08-20T02:05:58.028Z,0
2016-08-20T02:06:57.149Z,0
2016-08-20T02:07:57.090Z,0
2016-08-20T02:08:57.267Z,0
2016-08-20T02:09:56.991Z,0
2016-08-20T02:10:57.145Z,0
2016-08-20T02:11:57.921Z,0
2016-08-20T02:12:57.279Z,0
2016-08-20T02:13:57.404Z,0
2016-08-20T02:14:57.265Z,0
2016-08-20T02:15:57.103Z,0
2016-08-20T02:16:57.125Z,0
2016-08-20T02:17:58.233Z,0
2016-08-20T02:18:57.010Z,0
2016-08-20T02:19:57.920Z,0
2016-08-20T02:20:57.570Z,0
2016-08-20T02:21:58.040Z,0
2016-08-20T02:22:58.292Z,0
2016-08-20T02:23:57.361Z,0
2016-08-20T02:24:57.333Z,0
2016-08-20T02:25:59.606Z,0
2016-08-20T02:26:57.206Z,0
2016-08-20T02:27:58.933Z,0
2016-08-20T02:28:58.524Z,0
2016-08-20T02:29:57.261Z,0
2016-08-20T02:30:57.632Z,0
2016-08-20T02:31:58.314Z,0
2016-08-20T02:32:58.703Z,0
2016-08-20T02:33:57.406Z,0
2016-08-20T02:34:58.222Z,0
2016-08-20T02:35:57.267Z,0
2016-08-20T02:36:58.502Z,0
2016-08-20T02:37:57.675Z,0
2016-08-20T02:38:57.133Z,0
2016-08-20T02:39:57.617Z,0
2016-08-20T02:40:57.340Z,0
2016-08-20T02:41:58.358Z,0
2016-08-20T02:42:57.167Z,0
2016-08-20T02:43:58.308Z,0
2016-08-20T02:44:57.558Z,0
2016-08-20T02:45:59.284Z,0
2016-08-20T02:46:57.407Z,0
2016-08-20T02:47:58.334Z,0
2016-08-20T02:48:58.490Z,0
2016-08-20T02:49:58.657Z,0
2016-08-20T02:50:57.445Z,0
2016-08-20T02:51:57.477Z,0
2016-08-20T02:52:58.090Z,0
2016-08-20T02:53:57.059Z,0
2016-08-20T02:54:57.114Z,0
2016-08-20T02:55:57.225Z,0
2016-08-20T02:56:58.377Z,0
2016-08-20T02:57:57.583Z,0
2016-08-20T02:58:57.230Z,0
2016-08-20T02:59:57.298Z,0
2016-08-20T03:00:57.065Z,0
2016-08-20T03:01:57.426Z,0
2016-08-20T03:02:57.851Z,0
2016-08-20T03:04:57.183Z,0
2016-08-20T03:05:57.194Z,0
2016-08-20T03:06:57.282Z,0
2016-08-20T03:07:57.998Z,0
2016-08-20T03:08:57.038Z,0
2016-08-20T03:09:57.061Z,0
2016-08-20T03:10:57.150Z,0
2016-08-20T03:11:57.049Z,0
2016-08-20T03:12:57.115Z,0
2016-08-20T03:13:57.418Z,0
2016-08-20T03:14:57.083Z,0
2016-08-20T03:15:56.853Z,0
2016-08-20T03:16:56.994Z,0
2016-08-20T03:17:56.939Z,0
2016-08-20T03:18:57.351Z,0
2016-08-20T03:19:56.851Z,0
2016-08-20T03:20:56.852Z,0
2016-08-20T03:21:56.919Z,0
2016-08-20T03:22:57.171Z,0
2016-08-20T03:23:56.932Z,0
2016-08-20T03:24:57.371Z,0
2016-08-20T03:25:57.249Z,0
2016-08-20T03:26:56.832Z,0
2016-08-20T03:27:57.133Z,0
2016-08-20T03:28:57.324Z,0
2016-08-20T03:29:57.129Z,0
2016-08-20T03:30:56.832Z,0
2016-08-20T03:31:57.059Z,0
2016-08-20T03:32:56.944Z,0
2016-08-20T03:33:56.925Z,0
2016-08-20T03:34:57.173Z,0
2016-08-20T03:35:56.969Z,0
2016-08-20T03:36:56.865Z,0
2016-08-20T03:37:57.735Z,0
2016-08-20T03:38:56.888Z,0
2016-08-20T03:39:56.811Z,0
2016-08-20T03:40:57.170Z,0
2016-08-20T03:41:56.953Z,4
2016-08-20T03:42:57.548Z,4
2016-08-20T03:43:56.829Z,4
2016-08-20T03:44:57.669Z,4
2016-08-20T03:45:56.776Z,0
2016-08-20T03:46:56.892Z,4
2016-08-20T03:47:57.021Z,4
2016-08-20T03:48:57.006Z,4
2016-08-20T03:49:57.049Z,8
2016-08-20T03:50:57.199Z,8
2016-08-20T03:51:57.103Z,8
2016-08-20T03:52:56.807Z,4
2016-08-20T03:53:56.947Z,8
2016-08-20T03:54:57.006Z,4
2016-08-20T03:55:56.943Z,8
2016-08-20T03:56:56.930Z,8
2016-08-20T03:57:57.889Z,8
2016-08-20T03:58:56.758Z,12
2016-08-20T03:59:57.043Z,16
2016-08-20T04:00:56.920Z,12
2016-08-20T04:01:56.938Z,16
2016-08-20T04:02:57.721Z,20
2016-08-20T04:03:56.945Z,20
2016-08-20T04:04:56.752Z,20
2016-08-20T04:05:56.756Z,16
2016-08-20T04:06:57.612Z,16
2016-08-20T04:07:56.793Z,20
2016-08-20T04:08:56.829Z,20
2016-08-20T04:09:56.829Z,20
2016-08-20T04:10:56.806Z,20
2016-08-20T04:11:56.812Z,20
2016-08-20T04:12:56.739Z,20
2016-08-20T04:13:57.120Z,24
2016-08-20T04:14:56.889Z,28
2016-08-20T04:15:56.743Z,28
2016-08-20T04:16:56.760Z,28
2016-08-20T04:17:56.852Z,32
2016-08-20T04:18:56.773Z,28
2016-08-20T04:19:56.758Z,28
2016-08-20T04:20:56.760Z,24
2016-08-20T04:21:56.720Z,20
2016-08-20T04:22:56.718Z,20
2016-08-20T04:23:56.675Z,16
2016-08-20T04:24:56.860Z,20
2016-08-20T04:25:57.157Z,28
2016-08-20T04:26:56.942Z,32
2016-08-20T04:27:56.971Z,28
2016-08-20T04:28:57.118Z,24
2016-08-20T04:29:56.768Z,36
2016-08-20T04:30:56.696Z,36
2016-08-20T04:31:56.739Z,32
2016-08-20T04:32:56.721Z,24
2016-08-20T04:33:56.779Z,28
2016-08-20T04:34:56.751Z,36
2016-08-20T04:35:56.886Z,56
2016-08-20T04:36:57.117Z,76
2016-08-20T04:37:56.912Z,92
2016-08-20T04:38:56.704Z,104
2016-08-20T04:39:56.688Z,124
2016-08-20T04:40:56.720Z,156
2016-08-20T04:41:56.664Z,196
2016-08-20T04:42:56.812Z,236
2016-08-20T04:43:56.826Z,260
2016-08-20T04:44:57.672Z,280
2016-08-20T04:45:57.490Z,296
2016-08-20T04:47:58.014Z,336
2016-08-20T04:48:57.154Z,352
2016-08-20T04:49:56.782Z,360
2016-08-20T04:50:56.620Z,368
2016-08-20T04:51:56.785Z,368
2016-08-20T04:52:56.646Z,360
2016-08-20T04:53:56.615Z,348
2016-08-20T04:54:57.402Z,336
2016-08-20T04:55:56.666Z,324
2016-08-20T04:56:56.722Z,312
2016-08-20T04:57:56.967Z,300
2016-08-20T04:58:56.635Z,288
2016-08-20T04:59:56.647Z,272
2016-08-20T05:00:57.009Z,260
2016-08-20T05:01:56.804Z,244
2016-08-20T05:02:56.800Z,244
2016-08-20T05:03:56.635Z,244
2016-08-20T05:04:56.656Z,264
2016-08-20T05:05:57.395Z,284
2016-08-20T05:06:56.975Z,308
2016-08-20T05:07:56.839Z,332
2016-08-20T05:08:56.832Z,380
2016-08-20T05:09:56.933Z,440
2016-08-20T05:10:56.570Z,508
2016-08-20T05:11:57.036Z,572
2016-08-20T05:12:56.717Z,628
2016-08-20T05:13:57.314Z,672
2016-08-20T05:14:57.450Z,684
2016-08-20T05:15:56.774Z,676
2016-08-20T05:16:56.896Z,636
2016-08-20T05:17:56.617Z,592
2016-08-20T05:18:57.116Z,572
2016-08-20T05:19:56.607Z,588
2016-08-20T05:20:57.070Z,648
2016-08-20T05:21:56.628Z,732
2016-08-20T05:22:56.638Z,828
2016-08-20T05:23:56.713Z,912
2016-08-20T05:24:56.755Z,984
2016-08-20T05:25:58.178Z,1048
2016-08-20T05:26:56.930Z,1132
2016-08-20T05:27:56.619Z,1220
2016-08-20T05:28:56.577Z,1304
2016-08-20T05:29:57.476Z,1380
2016-08-20T05:30:57.041Z,1452
2016-08-20T05:31:57.132Z,1520
2016-08-20T05:32:56.720Z,1580
2016-08-20T05:33:56.619Z,1636
2016-08-20T05:34:56.690Z,1688
2016-08-20T05:35:56.736Z,1736
2016-08-20T05:36:56.599Z,1784
2016-08-20T05:37:56.555Z,1828
2016-08-20T05:38:56.547Z,1912
2016-08-20T05:39:56.523Z,2028
2016-08-20T05:40:56.872Z,2180
2016-08-20T05:41:56.555Z,2340
2016-08-20T05:42:56.536Z,2456
2016-08-20T05:43:56.638Z,2476
2016-08-20T05:44:57.559Z,2412
2016-08-20T05:45:56.502Z,2352
2016-08-20T05:46:57.369Z,2328
2016-08-20T05:47:57.517Z,2300
2016-08-20T05:48:56.615Z,2244
2016-08-20T05:49:56.522Z,2204
2016-08-20T05:50:56.651Z,2264
2016-08-20T05:51:56.647Z,2420
2016-08-20T05:52:56.641Z,2596
2016-08-20T05:53:56.844Z,2732
2016-08-20T05:54:56.696Z,2772
2016-08-20T05:55:56.777Z,2700
2016-08-20T05:56:56.693Z,2640
2016-08-20T05:57:56.712Z,2708
2016-08-20T05:58:56.493Z,2844
2016-08-20T05:59:57.761Z,2936
2016-08-20T06:00:57.881Z,3032
2016-08-20T06:01:58.461Z,3196
2016-08-20T06:02:56.509Z,3392
2016-08-20T06:03:56.471Z,3548
2016-08-20T06:04:56.486Z,3524
2016-08-20T06:05:56.704Z,3268
2016-08-20T06:06:57.526Z,2840
2016-08-20T06:07:56.745Z,2468
2016-08-20T06:08:56.703Z,2240
2016-08-20T06:09:56.663Z,2152
2016-08-20T06:10:56.869Z,2160
2016-08-20T06:11:56.572Z,2232
2016-08-20T06:12:56.651Z,2312
2016-08-20T06:13:57.183Z,2364
2016-08-20T06:14:56.831Z,2432
2016-08-20T06:15:56.497Z,2576
2016-08-20T06:16:56.472Z,2788
2016-08-20T06:17:56.544Z,2996
2016-08-20T06:18:56.454Z,3124
2016-08-20T06:19:56.475Z,3180
2016-08-20T06:20:56.460Z,3204
2016-08-20T06:21:56.623Z,3176
2016-08-20T06:22:56.871Z,3148
2016-08-20T06:23:56.438Z,3192
2016-08-20T06:24:56.563Z,3384
2016-08-20T06:25:56.445Z,3716
2016-08-20T06:26:56.454Z,3976
2016-08-20T06:27:56.427Z,4124
2016-08-20T06:28:56.646Z,4208
2016-08-20T06:29:56.449Z,4380
2016-08-20T06:30:56.477Z,4612
2016-08-20T06:31:56.465Z,4832
2016-08-20T06:32:56.480Z,5032
2016-08-20T06:33:56.758Z,5200
2016-08-20T06:34:56.434Z,5108
2016-08-20T06:35:56.400Z,4844
2016-08-20T06:36:56.723Z,4576
2016-08-20T06:37:56.640Z,4596
2016-08-20T06:38:56.430Z,5052
2016-08-20T06:39:56.432Z,5784
2016-08-20T06:40:56.418Z,6236
2016-08-20T06:41:57.239Z,6384
2016-08-20T06:42:58.010Z,6704
2016-08-20T06:43:56.404Z,7320
2016-08-20T06:44:56.366Z,8208
2016-08-20T06:45:56.460Z,8844
2016-08-20T06:46:57.218Z,8832
2016-08-20T06:47:56.939Z,8644
2016-08-20T06:48:56.405Z,8420
2016-08-20T06:49:56.383Z,8280
2016-08-20T06:50:57.959Z,8016
2016-08-20T06:51:56.405Z,7528
2016-08-20T06:52:56.440Z,6804
2016-08-20T06:53:56.423Z,6380
2016-08-20T06:54:56.412Z,6484
2016-08-20T06:55:56.562Z,6580
2016-08-20T06:56:56.415Z,6404
2016-08-20T06:57:56.466Z,5928
2016-08-20T06:58:56.408Z,5624
2016-08-20T06:59:57.173Z,5492
2016-08-20T07:00:56.685Z,5584
2016-08-20T07:01:57.446Z,5696
2016-08-20T07:02:56.388Z,5732
2016-08-20T07:03:56.440Z,5648
2016-08-20T07:04:56.475Z,5484
2016-08-20T07:05:56.405Z,5336
2016-08-20T07:06:56.478Z,5284
2016-08-20T07:07:56.583Z,5388
2016-08-20T07:08:57.255Z,5620
2016-08-20T07:09:56.457Z,6040
2016-08-20T07:10:56.422Z,6580
2016-08-20T07:11:56.381Z,7176
2016-08-20T07:12:56.456Z,7664
2016-08-20T07:13:56.441Z,7716
2016-08-20T07:15:12.210Z,7348
2016-08-20T07:15:56.433Z,7020
2016-08-20T07:16:56.344Z,6588
2016-08-20T07:17:56.381Z,6232
2016-08-20T07:18:56.369Z,6016
2016-08-20T07:19:56.503Z,6008
2016-08-20T07:20:56.410Z,6000
2016-08-20T07:21:56.386Z,5952
2016-08-20T07:22:56.452Z,5644
2016-08-20T07:23:56.424Z,5248
2016-08-20T07:24:56.703Z,5204
2016-08-20T07:25:56.709Z,5520
2016-08-20T07:26:56.387Z,5948
2016-08-20T07:27:57.241Z,6200
2016-08-20T07:28:56.556Z,6332
2016-08-20T07:29:56.611Z,6148
2016-08-20T07:30:56.385Z,5776
2016-08-20T07:31:56.389Z,5360
2016-08-20T07:32:56.375Z,5276
2016-08-20T07:33:56.395Z,5688
2016-08-20T07:34:56.459Z,6624
2016-08-20T07:35:56.683Z,8140
2016-08-20T07:36:56.487Z,9172
2016-08-20T07:37:56.372Z,9460
2016-08-20T07:38:56.423Z,9492
2016-08-20T07:39:56.438Z,9536
2016-08-20T07:40:56.574Z,9632
2016-08-20T07:41:56.639Z,9800
2016-08-20T07:42:56.385Z,10080
2016-08-20T07:43:56.407Z,10468
2016-08-20T07:44:57.054Z,10776
2016-08-20T07:45:56.397Z,10572
2016-08-20T07:46:56.680Z,10208
2016-08-20T07:47:56.365Z,9984
2016-08-20T07:48:56.605Z,10468
2016-08-20T07:49:56.652Z,11008
2016-08-20T07:50:57.448Z,11020
2016-08-20T07:51:56.402Z,11156
2016-08-20T07:52:56.382Z,11260
2016-08-20T07:53:56.370Z,11292
2016-08-20T07:54:56.445Z,11304
2016-08-20T07:55:56.404Z,10896
2016-08-20T07:56:56.689Z,10012
2016-08-20T07:57:56.707Z,9184
2016-08-20T07:58:56.455Z,8628
2016-08-20T07:59:56.381Z,8504
2016-08-20T08:00:56.461Z,8848
2016-08-20T08:01:56.449Z,9132
2016-08-20T08:02:58.280Z,10016
2016-08-20T08:03:56.423Z,11016
2016-08-20T08:04:56.425Z,11460
2016-08-20T08:05:56.384Z,12068
2016-08-20T08:06:56.641Z,11288
2016-08-20T08:07:57.394Z,10552
2016-08-20T08:08:56.491Z,9780
2016-08-20T08:09:56.354Z,9340
2016-08-20T08:10:56.390Z,8644
2016-08-20T08:11:56.354Z,8696
2016-08-20T08:12:56.398Z,9156
2016-08-20T08:13:56.541Z,10224
2016-08-20T08:14:56.415Z,11268
2016-08-20T08:15:56.382Z,12224
2016-08-20T08:16:56.372Z,12392
2016-08-20T08:17:57.193Z,12960
2016-08-20T08:18:56.390Z,12984
2016-08-20T08:19:56.390Z,12720
2016-08-20T08:20:56.586Z,12048
2016-08-20T08:21:56.423Z,12096
2016-08-20T08:22:56.401Z,12360
2016-08-20T08:23:56.608Z,12612
2016-08-20T08:24:56.640Z,12684
2016-08-20T08:25:57.799Z,12440
2016-08-20T08:26:56.458Z,12240
2016-08-20T08:27:56.402Z,12652
2016-08-20T08:28:56.398Z,12632
2016-08-20T08:29:57.240Z,11876
2016-08-20T08:30:56.441Z,10716
2016-08-20T08:31:56.517Z,9172
2016-08-20T08:32:56.403Z,7076
2016-08-20T08:33:56.435Z,5340
2016-08-20T08:34:56.591Z,4204
2016-08-20T08:35:56.432Z,3772
2016-08-20T08:36:56.571Z,4176
2016-08-20T08:37:56.454Z,5620
2016-08-20T08:38:56.411Z,7892
2016-08-20T08:39:56.467Z,9324
2016-08-20T08:40:56.431Z,9352
2016-08-20T08:41:56.751Z,10220
2016-08-20T08:42:56.604Z,11292
2016-08-20T08:43:56.657Z,11576
2016-08-20T08:44:56.427Z,10900
2016-08-20T08:45:56.458Z,9208
2016-08-20T08:46:56.436Z,7320
2016-08-20T08:47:56.460Z,5764
2016-08-20T08:48:56.609Z,4748
2016-08-20T08:49:56.479Z,3432
2016-08-20T08:50:56.511Z,2884
2016-08-20T08:51:56.443Z,2852
2016-08-20T08:52:56.477Z,2840
2016-08-20T08:53:57.473Z,2816
2016-08-20T08:54:56.839Z,2740
2016-08-20T08:55:56.906Z,2776
2016-08-20T08:56:56.644Z,2696
2016-08-20T08:57:56.599Z,2684
2016-08-20T08:58:57.708Z,2684
2016-08-20T08:59:57.074Z,2636
2016-08-20T09:00:56.548Z,2632
2016-08-20T09:01:56.443Z,2608
2016-08-20T09:02:56.516Z,2620
2016-08-20T09:03:56.789Z,2632
2016-08-20T09:04:56.533Z,2600
2016-08-20T09:05:56.511Z,2572
2016-08-20T09:06:56.485Z,2532
2016-08-20T09:07:56.502Z,2504
2016-08-20T09:08:57.481Z,2456
2016-08-20T09:09:56.495Z,2432
2016-08-20T09:10:56.625Z,2424
2016-08-20T09:11:56.681Z,2408
2016-08-20T09:12:56.614Z,2404
2016-08-20T09:13:56.527Z,2388
2016-08-20T09:14:56.604Z,2388
2016-08-20T09:15:56.800Z,2412
2016-08-20T09:16:56.650Z,2484
2016-08-20T09:17:56.624Z,2560
2016-08-20T09:18:56.590Z,2612
2016-08-20T09:19:56.527Z,2644
2016-08-20T09:20:57.391Z,2696
2016-08-20T09:21:56.965Z,2704
2016-08-20T09:22:56.633Z,2744
2016-08-20T09:23:56.536Z,2768
2016-08-20T09:24:56.563Z,2784
2016-08-20T09:25:56.601Z,2788
2016-08-20T09:26:56.553Z,2860
2016-08-20T09:27:56.523Z,2948
2016-08-20T09:28:58.020Z,2980
2016-08-20T09:29:56.549Z,3064
2016-08-20T09:30:56.508Z,3168
2016-08-20T09:31:57.341Z,3308
2016-08-20T09:32:56.546Z,3584
2016-08-20T09:33:56.552Z,3976
2016-08-20T09:34:56.604Z,4424
2016-08-20T09:35:56.540Z,5348
2016-08-20T09:36:56.542Z,6288
2016-08-20T09:37:56.566Z,7568
2016-08-20T09:38:56.946Z,8892
2016-08-20T09:39:56.554Z,9952
2016-08-20T09:40:56.613Z,10124
2016-08-20T09:41:56.581Z,9928
2016-08-20T09:42:56.848Z,9460
2016-08-20T09:43:56.569Z,8944
2016-08-20T09:44:57.739Z,8332
2016-08-20T09:45:56.582Z,7496
2016-08-20T09:46:56.576Z,6456
2016-08-20T09:47:56.582Z,6184
2016-08-20T09:48:56.628Z,7016
2016-08-20T09:49:57.359Z,7864
2016-08-20T09:50:56.619Z,8312
2016-08-20T09:51:56.567Z,7664
2016-08-20T09:52:57.311Z,6328
2016-08-20T09:53:56.700Z,4832
2016-08-20T09:54:56.800Z,3792
2016-08-20T09:55:56.834Z,3288
2016-08-20T09:56:56.599Z,3128
2016-08-20T09:57:56.621Z,3072
2016-08-20T09:58:56.601Z,3012
2016-08-20T09:59:56.569Z,2892
2016-08-20T10:00:57.028Z,2840
2016-08-20T10:01:56.996Z,2812
2016-08-20T10:02:56.720Z,2776
2016-08-20T10:03:56.950Z,2724
2016-08-20T10:04:56.985Z,2696
2016-08-20T10:05:56.634Z,2948
2016-08-20T10:06:56.693Z,2980
2016-08-20T10:07:56.669Z,2800
2016-08-20T10:08:56.638Z,2692
2016-08-20T10:09:56.736Z,2720
2016-08-20T10:10:56.841Z,2824
2016-08-20T10:11:56.812Z,3088
2016-08-20T10:12:56.771Z,3248
2016-08-20T10:13:56.702Z,3100
2016-08-20T10:14:56.831Z,2856
2016-08-20T10:15:57.918Z,2980
2016-08-20T10:16:56.696Z,2964
2016-08-20T10:17:56.652Z,2884
2016-08-20T10:18:56.652Z,3156
2016-08-20T10:19:56.653Z,3048
2016-08-20T10:20:56.677Z,3448
2016-08-20T10:21:56.656Z,3504
2016-08-20T10:22:57.058Z,3332
2016-08-20T10:23:57.008Z,3060
2016-08-20T10:24:56.674Z,2924
2016-08-20T10:25:56.663Z,2912
2016-08-20T10:26:56.676Z,2896
2016-08-20T10:27:56.690Z,2920
2016-08-20T10:28:56.700Z,2956
2016-08-20T10:29:56.949Z,2992
2016-08-20T10:30:56.772Z,3124
2016-08-20T10:31:56.731Z,3544
2016-08-20T10:32:56.708Z,3840
2016-08-20T10:33:56.736Z,3900
2016-08-20T10:34:56.782Z,3892
2016-08-20T10:35:56.690Z,4088
2016-08-20T10:36:56.789Z,4384
2016-08-20T10:37:56.718Z,4684
2016-08-20T10:38:56.725Z,5060
2016-08-20T10:39:56.672Z,5308
2016-08-20T10:40:56.731Z,5420
2016-08-20T10:41:57.771Z,5388
2016-08-20T10:42:57.646Z,5388
2016-08-20T10:43:57.771Z,5360
2016-08-20T10:44:56.937Z,5440
2016-08-20T10:45:56.778Z,5536
2016-08-20T10:46:56.746Z,5656
2016-08-20T10:47:56.771Z,5840
2016-08-20T10:48:56.762Z,6044
2016-08-20T10:49:57.618Z,6432
2016-08-20T10:50:56.916Z,6892
2016-08-20T10:51:57.736Z,7096
2016-08-20T10:52:56.725Z,6784
2016-08-20T10:53:56.736Z,6332
2016-08-20T10:54:56.781Z,5932
2016-08-20T10:55:56.765Z,5548
2016-08-20T10:56:57.738Z,5192
2016-08-20T10:57:56.740Z,5024
2016-08-20T10:58:56.800Z,4888
2016-08-20T10:59:56.939Z,4776
2016-08-20T11:00:57.524Z,4768
2016-08-20T11:01:56.967Z,4720
2016-08-20T11:02:57.105Z,4720
2016-08-20T11:03:56.771Z,4728
2016-08-20T11:04:56.776Z,4824
2016-08-20T11:05:56.746Z,5160
2016-08-20T11:06:57.243Z,5780
2016-08-20T11:07:56.975Z,6616
2016-08-20T11:08:56.807Z,7600
2016-08-20T11:09:57.799Z,8992
2016-08-20T11:10:56.804Z,9808
2016-08-20T11:11:56.807Z,9332
2016-08-20T11:12:56.825Z,7784
2016-08-20T11:13:56.928Z,6296
2016-08-20T11:14:56.805Z,5212
2016-08-20T11:15:56.806Z,4392
2016-08-20T11:16:57.025Z,3880
2016-08-20T11:17:57.821Z,3552
2016-08-20T11:18:56.824Z,3384
2016-08-20T11:19:56.825Z,3448
2016-08-20T11:20:56.823Z,3692
2016-08-20T11:21:57.561Z,3740
2016-08-20T11:22:56.953Z,3800
2016-08-20T11:23:57.015Z,4512
2016-08-20T11:24:56.831Z,5852
2016-08-20T11:25:56.895Z,6668
2016-08-20T11:26:56.867Z,6860
2016-08-20T11:27:57.448Z,6496
2016-08-20T11:28:56.998Z,6056
2016-08-20T11:29:56.860Z,6324
2016-08-20T11:30:57.755Z,6248
2016-08-20T11:31:57.404Z,6204
2016-08-20T11:32:57.004Z,6792
2016-08-20T11:33:57.401Z,7412
2016-08-20T11:34:57.200Z,7620
2016-08-20T11:35:56.916Z,7480
2016-08-20T11:36:56.957Z,7184
2016-08-20T11:37:56.928Z,6944
2016-08-20T11:38:56.905Z,7020
2016-08-20T11:39:57.671Z,7520
2016-08-20T11:40:56.918Z,7832
2016-08-20T11:41:56.993Z,8020
2016-08-20T11:43:13.324Z,8376
2016-08-20T11:43:56.977Z,8748
2016-08-20T11:44:57.045Z,9128
2016-08-20T11:45:58.009Z,9188
2016-08-20T11:46:57.249Z,9008
2016-08-20T11:47:57.458Z,8848
2016-08-20T11:48:56.924Z,9032
2016-08-20T11:49:56.941Z,9320
2016-08-20T11:50:57.185Z,9576
2016-08-20T11:51:56.935Z,10000
2016-08-20T11:52:56.999Z,10484
2016-08-20T11:53:58.645Z,10824
2016-08-20T11:54:57.161Z,11124
2016-08-20T11:55:56.964Z,11364
2016-08-20T11:56:57.684Z,11648
2016-08-20T11:57:57.130Z,11928
2016-08-20T11:58:57.020Z,12248
2016-08-20T11:59:57.001Z,12788
2016-08-20T12:00:57.033Z,13356
2016-08-20T12:01:57.304Z,13764
2016-08-20T12:02:57.007Z,14192
2016-08-20T12:03:56.975Z,14564
2016-08-20T12:04:58.121Z,14340
2016-08-20T12:05:57.020Z,13712
2016-08-20T12:06:56.988Z,13152
2016-08-20T12:07:56.973Z,12824
2016-08-20T12:08:57.011Z,12916
2016-08-20T12:09:57.141Z,12948
2016-08-20T12:10:57.013Z,12800
2016-08-20T12:11:57.032Z,12528
2016-08-20T12:12:56.994Z,12056
2016-08-20T12:13:57.039Z,11600
2016-08-20T12:14:57.178Z,11076
2016-08-20T12:15:57.132Z,10184
2016-08-20T12:16:57.427Z,9552
2016-08-20T12:17:57.216Z,9100
2016-08-20T12:18:57.335Z,8888
2016-08-20T12:19:57.311Z,8712
2016-08-20T12:20:57.378Z,8500
2016-08-20T12:21:57.749Z,8376
2016-08-20T12:22:57.486Z,8324
2016-08-20T12:23:57.725Z,8396
2016-08-20T12:24:57.691Z,8424
2016-08-20T12:25:57.401Z,8136
2016-08-20T12:26:57.620Z,8120
2016-08-20T12:27:57.532Z,8004
2016-08-20T12:28:57.446Z,8212
2016-08-20T12:29:57.557Z,8428
2016-08-20T12:30:58.312Z,9124
2016-08-20T12:31:57.490Z,9416
2016-08-20T12:32:57.640Z,9472
2016-08-20T12:33:57.544Z,9072
2016-08-20T12:34:57.705Z,8516
2016-08-20T12:35:57.309Z,8452
2016-08-20T12:36:57.287Z,8496
2016-08-20T12:37:57.490Z,8464
2016-08-20T12:38:57.533Z,8088
2016-08-20T12:39:57.439Z,8060
2016-08-20T12:40:57.328Z,8476
2016-08-20T12:41:57.696Z,8980
2016-08-20T12:42:57.631Z,9700
2016-08-20T12:43:57.718Z,9964
2016-08-20T12:44:57.449Z,10212
2016-08-20T12:45:57.437Z,10196
2016-08-20T12:46:57.429Z,10004
2016-08-20T12:47:57.419Z,9696
2016-08-20T12:48:58.333Z,9500
2016-08-20T12:49:57.484Z,9368
2016-08-20T12:50:57.482Z,9120
2016-08-20T12:51:58.206Z,8760
2016-08-20T12:52:57.523Z,8788
2016-08-20T12:53:57.489Z,9144
2016-08-20T12:54:57.504Z,9576
2016-08-20T12:55:57.949Z,10072
2016-08-20T12:56:57.662Z,10480
2016-08-20T12:57:57.672Z,10788
2016-08-20T12:58:57.519Z,10924
2016-08-20T12:59:57.413Z,10964
2016-08-20T13:00:57.470Z,10908
2016-08-20T13:01:57.534Z,10700
2016-08-20T13:02:57.532Z,10384
2016-08-20T13:03:57.453Z,10112
2016-08-20T13:04:57.552Z,9972
2016-08-20T13:05:57.986Z,9956
2016-08-20T13:07:12.124Z,10080
2016-08-20T13:07:57.460Z,10172
2016-08-20T13:08:57.488Z,10180
2016-08-20T13:09:57.628Z,10288
2016-08-20T13:10:57.590Z,10392
2016-08-20T13:11:57.569Z,10332
2016-08-20T13:12:57.578Z,10204
2016-08-20T13:13:57.508Z,10108
2016-08-20T13:14:57.716Z,10096
2016-08-20T13:15:57.495Z,10176
2016-08-20T13:16:57.563Z,10152
2016-08-20T13:17:57.452Z,9988
2016-08-20T13:18:57.604Z,9996
2016-08-20T13:19:57.434Z,10092
2016-08-20T13:20:57.453Z,10016
2016-08-20T13:21:57.466Z,9864
2016-08-20T13:22:57.513Z,9860
2016-08-20T13:23:57.547Z,9936
2016-08-20T13:24:57.489Z,9872
2016-08-20T13:25:58.089Z,9864
2016-08-20T13:26:57.464Z,9832
2016-08-20T13:27:57.464Z,9880
2016-08-20T13:28:57.479Z,10100
2016-08-20T13:29:57.482Z,10248
2016-08-20T13:30:57.596Z,10276
2016-08-20T13:31:57.568Z,10240
2016-08-20T13:32:57.512Z,10316
2016-08-20T13:33:58.476Z,10408
2016-08-20T13:34:57.552Z,10500
2016-08-20T13:35:58.424Z,10736
2016-08-20T13:36:57.473Z,11060
2016-08-20T13:37:57.551Z,11236
2016-08-20T13:38:57.534Z,11336
2016-08-20T13:39:57.534Z,11440
2016-08-20T13:40:57.467Z,11580
2016-08-20T13:41:57.460Z,11680
2016-08-20T13:42:57.553Z,11664
2016-08-20T13:43:57.503Z,11668
2016-08-20T13:44:57.551Z,11656